Portada
METAR-TAF:

METAR-TAF

Aeroports :

Damasc, Síria

latitud: 33-25N, longitud: 036-31E, altitud: 608 m

Observació

L'informe es va fer fa 12 minuts, a les 17:00 UTC
Vent 16 kt del Oest/Sud-Oest
Temperatura 13°C
Humitat 72%
Pressió 1017 hPa
Visibilitat 10 km o més
Escasses núvols a una alçada de 3000 ft
Núvols disperses a una alçada de 10000 ft

METAR: OSDI 121700Z 25016KT 9999 FEW030 SCT100 13/08 Q1017

Hora: 19:12 (17:12 UTC)

Pronòstic

L'informe es va fer fa 12 hores i 12 minuts, a les 05:00 UTC
Pronòstic vàlid del 12 a les 06 UTC al 13 a les 00 UTC
Vent 15 kt del Oest/Sud-Oest amb ràfegues de 30 kt
Visibilitat 10 km o més
Núvols disperses a una alçada de 3000 ft
Cel ennuvolat a una alçada de 10000 ft

TAF: OSDI 120500Z 1206 1313 22010KT 9999 SCT030 BKN100 TEMBO 1206/1200 24015G30KT

Observacions i pronòstics meteorològics de més de 4000 aeroports (METAR i TAF).

Les estacions disponibles són els punts grocs i vermells al mapa.

Posi el ratolí al punt desitjat per veure el nom de l'estació.

Feu clic per veure les observacions i els pronòstics meteorològics.

Per canviar el mapa: feu clic els botons verds amb una creu de color negre per apropar; al botó verd amb un guió per allunyar la imatge; o en les fletxes verdes per a mapes adjacents.


METAR-TAF: